createdAt,value
2023-02-15T00:00:41.740Z,2.77
2023-02-15T00:01:41.809Z,2.74
2023-02-15T00:02:41.710Z,2.74
2023-02-15T00:03:41.698Z,2.72
2023-02-15T00:04:41.689Z,2.69
2023-02-15T00:05:41.691Z,2.67
2023-02-15T00:06:41.841Z,2.66
2023-02-15T00:07:41.673Z,2.64
2023-02-15T00:08:41.643Z,2.64
2023-02-15T00:09:41.642Z,2.61
2023-02-15T00:10:41.612Z,2.60
2023-02-15T00:11:41.615Z,2.59
2023-02-15T00:12:41.754Z,2.60
2023-02-15T00:13:41.565Z,2.60
2023-02-15T00:14:41.565Z,2.60
2023-02-15T00:15:41.589Z,2.59
2023-02-15T00:16:41.588Z,2.57
2023-02-15T00:17:41.535Z,2.56
2023-02-15T00:18:41.505Z,2.56
2023-02-15T00:19:41.496Z,2.57
2023-02-15T00:20:41.482Z,2.54
2023-02-15T00:21:41.646Z,2.53
2023-02-15T00:22:41.462Z,2.53
2023-02-15T00:23:41.623Z,2.49
2023-02-15T00:24:41.429Z,2.48
2023-02-15T00:25:41.418Z,2.46
2023-02-15T00:26:41.405Z,2.46
2023-02-15T00:27:41.399Z,2.49
2023-02-15T00:28:41.551Z,2.48
2023-02-15T00:29:41.364Z,2.46
2023-02-15T00:30:41.389Z,2.45
2023-02-15T00:31:41.403Z,2.46
2023-02-15T00:32:41.518Z,2.45
2023-02-15T00:33:41.311Z,2.43
2023-02-15T00:34:41.300Z,2.45
2023-02-15T00:35:41.293Z,2.45
2023-02-15T00:36:41.468Z,2.46
2023-02-15T00:37:41.264Z,2.46
2023-02-15T00:38:41.251Z,2.46
2023-02-15T00:39:41.255Z,2.48
2023-02-15T00:40:41.229Z,2.49
2023-02-15T00:41:41.215Z,2.48
2023-02-15T00:42:41.209Z,2.49
2023-02-15T00:43:41.193Z,2.52
2023-02-15T00:44:41.348Z,2.52
2023-02-15T00:45:41.192Z,2.49
2023-02-15T00:46:41.329Z,2.48
2023-02-15T00:47:41.137Z,2.49
2023-02-15T00:48:41.124Z,2.53
2023-02-15T00:49:41.113Z,2.53
2023-02-15T00:50:41.099Z,2.52
2023-02-15T00:51:41.281Z,2.52
2023-02-15T00:52:41.077Z,2.53
2023-02-15T00:53:41.087Z,2.53
2023-02-15T00:54:41.036Z,2.52
2023-02-15T00:55:41.035Z,2.52
2023-02-15T00:56:41.016Z,2.49
2023-02-15T00:57:41.009Z,2.48
2023-02-15T00:58:41.164Z,2.46
2023-02-15T00:59:40.994Z,2.45
2023-02-15T01:00:41.145Z,2.39
2023-02-15T01:01:40.965Z,2.39
2023-02-15T01:02:40.941Z,2.39
2023-02-15T01:03:41.106Z,2.36
2023-02-15T01:04:40.964Z,2.31
2023-02-15T01:05:40.904Z,2.31
2023-02-15T01:06:41.074Z,2.28
2023-02-15T01:07:40.884Z,2.27
2023-02-15T01:08:40.869Z,2.27
2023-02-15T01:09:40.864Z,2.24
2023-02-15T01:10:40.842Z,2.24
2023-02-15T01:11:41.006Z,2.24
2023-02-15T01:12:40.816Z,2.23
2023-02-15T01:13:40.838Z,2.21
2023-02-15T01:14:40.799Z,2.23
2023-02-15T01:15:43.061Z,2.21
2023-02-15T01:16:40.769Z,2.21
2023-02-15T01:17:40.755Z,2.23
2023-02-15T01:18:41.045Z,2.20
2023-02-15T01:19:40.736Z,2.18
2023-02-15T01:20:40.722Z,2.18
2023-02-15T01:21:40.713Z,2.17
2023-02-15T01:22:40.698Z,2.16
2023-02-15T01:23:40.694Z,2.14
2023-02-15T01:24:40.660Z,2.12
2023-02-15T01:25:40.652Z,2.14
2023-02-15T01:26:40.650Z,2.14
2023-02-15T01:27:40.622Z,2.12
2023-02-15T01:28:40.795Z,2.10
2023-02-15T01:29:40.615Z,2.09
2023-02-15T01:30:40.756Z,2.07
2023-02-15T01:31:40.671Z,2.06
2023-02-15T01:32:40.560Z,2.05
2023-02-15T01:33:40.564Z,2.05
2023-02-15T01:34:40.709Z,2.03
2023-02-15T01:35:40.527Z,2.02
2023-02-15T01:36:40.510Z,2.00
2023-02-15T01:37:40.500Z,2.00
2023-02-15T01:38:40.481Z,1.99
2023-02-15T01:39:40.649Z,1.95
2023-02-15T01:40:40.639Z,1.95
2023-02-15T01:41:40.452Z,1.93
2023-02-15T01:42:40.444Z,1.88
2023-02-15T01:43:40.432Z,1.88
2023-02-15T01:44:40.409Z,1.87
2023-02-15T01:45:40.579Z,1.87
2023-02-15T01:46:40.558Z,1.86
2023-02-15T01:47:40.381Z,1.83
2023-02-15T01:48:40.367Z,1.83
2023-02-15T01:49:40.340Z,1.81
2023-02-15T01:50:40.326Z,1.80
2023-02-15T01:51:40.349Z,1.80
2023-02-15T01:52:40.314Z,1.79
2023-02-15T01:53:40.296Z,1.79
2023-02-15T01:54:40.274Z,1.77
2023-02-15T01:55:40.272Z,1.77
2023-02-15T01:56:40.256Z,1.76
2023-02-15T01:57:40.258Z,1.76
2023-02-15T01:58:40.405Z,1.76
2023-02-15T01:59:40.215Z,1.73
2023-02-15T02:00:40.201Z,1.73
2023-02-15T02:01:40.355Z,1.73
2023-02-15T02:02:40.191Z,1.72
2023-02-15T02:03:40.355Z,1.72
2023-02-15T02:04:40.147Z,1.70
2023-02-15T02:05:40.138Z,1.70
2023-02-15T02:06:40.132Z,1.69
2023-02-15T02:07:40.109Z,1.69
2023-02-15T02:08:40.273Z,1.68
2023-02-15T02:09:40.088Z,1.68
2023-02-15T02:10:40.070Z,1.66
2023-02-15T02:11:40.070Z,1.66
2023-02-15T02:12:40.046Z,1.65
2023-02-15T02:13:40.046Z,1.65
2023-02-15T02:14:40.197Z,1.63
2023-02-15T02:15:40.033Z,1.62
2023-02-15T02:16:39.995Z,1.60
2023-02-15T02:17:39.987Z,1.58
2023-02-15T02:18:39.966Z,1.58
2023-02-15T02:19:40.137Z,1.55
2023-02-15T02:20:39.945Z,1.54
2023-02-15T02:21:39.938Z,1.52
2023-02-15T02:22:39.924Z,1.52
2023-02-15T02:23:39.924Z,1.52
2023-02-15T02:24:39.924Z,1.52
2023-02-15T02:25:39.884Z,1.51
2023-02-15T02:26:39.873Z,1.51
2023-02-15T02:27:39.861Z,1.50
2023-02-15T02:28:39.844Z,1.48
2023-02-15T02:29:39.863Z,1.51
2023-02-15T02:30:40.118Z,1.51
2023-02-15T02:31:39.957Z,1.50
2023-02-15T02:32:39.796Z,1.48
2023-02-15T02:33:39.784Z,1.50
2023-02-15T02:34:39.761Z,1.47
2023-02-15T02:35:39.751Z,1.47
2023-02-15T02:36:39.932Z,1.47
2023-02-15T02:37:39.750Z,1.45
2023-02-15T02:38:39.724Z,1.45
2023-02-15T02:39:39.700Z,1.45
2023-02-15T02:40:39.701Z,1.45
2023-02-15T02:41:39.691Z,1.45
2023-02-15T02:42:39.843Z,1.44
2023-02-15T02:43:39.653Z,1.42
2023-02-15T02:44:39.649Z,1.42
2023-02-15T02:45:39.630Z,1.41
2023-02-15T02:46:39.720Z,1.40
2023-02-15T02:47:39.778Z,1.40
2023-02-15T02:48:39.770Z,1.36
2023-02-15T02:49:39.600Z,1.36
2023-02-15T02:50:39.569Z,1.37
2023-02-15T02:51:39.549Z,1.34
2023-02-15T02:52:39.732Z,1.34
2023-02-15T02:53:39.548Z,1.34
2023-02-15T02:54:39.528Z,1.33
2023-02-15T02:55:39.508Z,1.34
2023-02-15T02:56:39.487Z,1.34
2023-02-15T02:57:39.477Z,1.36
2023-02-15T02:58:39.827Z,1.37
2023-02-15T02:59:39.460Z,1.40
2023-02-15T03:00:39.450Z,1.36
2023-02-15T03:01:39.486Z,1.36
2023-02-15T03:02:39.497Z,1.34
2023-02-15T03:03:39.412Z,1.34
2023-02-15T03:04:39.397Z,1.33
2023-02-15T03:05:39.383Z,1.32
2023-02-15T03:06:39.365Z,1.30
2023-02-15T03:07:39.355Z,1.30
2023-02-15T03:08:39.355Z,1.29
2023-02-15T03:09:39.335Z,1.29
2023-02-15T03:10:39.326Z,1.27
2023-02-15T03:11:39.318Z,1.26
2023-02-15T03:12:39.290Z,1.26
2023-02-15T03:13:39.287Z,1.26
2023-02-15T03:14:39.277Z,1.26
2023-02-15T03:15:39.445Z,1.24
2023-02-15T03:16:39.238Z,1.26
2023-02-15T03:17:39.230Z,1.24
2023-02-15T03:18:39.216Z,1.24
2023-02-15T03:19:39.213Z,1.23
2023-02-15T03:20:39.199Z,1.22
2023-02-15T03:21:39.204Z,1.20
2023-02-15T03:22:39.162Z,1.20
2023-02-15T03:23:39.153Z,1.18
2023-02-15T03:24:39.152Z,1.18
2023-02-15T03:25:39.131Z,1.16
2023-02-15T03:26:39.297Z,1.16
2023-02-15T03:27:39.294Z,1.16
2023-02-15T03:28:39.094Z,1.16
2023-02-15T03:29:39.086Z,1.15
2023-02-15T03:30:39.062Z,1.15
2023-02-15T03:31:39.136Z,1.15
2023-02-15T03:32:39.224Z,1.12
2023-02-15T03:33:39.040Z,1.12
2023-02-15T03:34:39.026Z,1.14
2023-02-15T03:35:39.003Z,1.11
2023-02-15T03:36:39.050Z,1.11
2023-02-15T03:37:39.011Z,1.09
2023-02-15T03:38:38.971Z,1.09
2023-02-15T03:39:38.946Z,1.08
2023-02-15T03:40:38.944Z,1.09
2023-02-15T03:41:38.924Z,1.08
2023-02-15T03:42:38.931Z,1.06
2023-02-15T03:43:38.902Z,1.05
2023-02-15T03:44:38.892Z,1.04
2023-02-15T03:45:38.868Z,1.05
2023-02-15T03:46:38.877Z,1.04
2023-02-15T03:47:38.851Z,1.02
2023-02-15T03:48:39.011Z,1.02
2023-02-15T03:49:38.992Z,1.02
2023-02-15T03:50:38.816Z,1.00
2023-02-15T03:51:38.813Z,1.00
2023-02-15T03:52:38.785Z,1.00
2023-02-15T03:53:38.782Z,0.98
2023-02-15T03:54:38.945Z,0.98
2023-02-15T03:55:38.920Z,0.97
2023-02-15T03:56:38.741Z,0.96
2023-02-15T03:57:38.720Z,0.96
2023-02-15T03:58:38.717Z,0.97
2023-02-15T03:59:38.695Z,0.96
2023-02-15T04:00:38.715Z,0.93
2023-02-15T04:01:38.670Z,0.91
2023-02-15T04:02:38.706Z,0.93
2023-02-15T04:03:38.656Z,0.90
2023-02-15T04:04:38.649Z,0.88
2023-02-15T04:05:38.792Z,0.87
2023-02-15T04:06:38.614Z,0.87
2023-02-15T04:07:38.592Z,0.87
2023-02-15T04:08:38.598Z,0.86
2023-02-15T04:09:38.575Z,0.86
2023-02-15T04:10:38.733Z,0.83
2023-02-15T04:11:38.544Z,0.80
2023-02-15T04:12:38.540Z,0.80
2023-02-15T04:13:38.523Z,0.80
2023-02-15T04:14:38.510Z,0.80
2023-02-15T04:15:38.664Z,0.79
2023-02-15T04:16:38.852Z,0.79
2023-02-15T04:17:38.477Z,0.78
2023-02-15T04:18:38.469Z,0.78
2023-02-15T04:19:38.437Z,0.79
2023-02-15T04:20:38.426Z,0.78
2023-02-15T04:21:38.428Z,0.78
2023-02-15T04:22:38.405Z,0.78
2023-02-15T04:23:38.387Z,0.75
2023-02-15T04:24:38.375Z,0.75
2023-02-15T04:25:38.366Z,0.76
2023-02-15T04:26:38.527Z,0.73
2023-02-15T04:27:38.337Z,0.72
2023-02-15T04:28:38.323Z,0.70
2023-02-15T04:29:38.314Z,0.72
2023-02-15T04:30:38.308Z,0.73
2023-02-15T04:31:38.413Z,0.72
2023-02-15T04:32:38.453Z,0.72
2023-02-15T04:33:38.260Z,0.72
2023-02-15T04:34:38.251Z,0.72
2023-02-15T04:35:38.235Z,0.72
2023-02-15T04:36:38.219Z,0.72
2023-02-15T04:37:38.389Z,0.72
2023-02-15T04:38:38.199Z,0.69
2023-02-15T04:39:38.178Z,0.69
2023-02-15T04:40:38.185Z,0.68
2023-02-15T04:41:38.156Z,0.66
2023-02-15T04:42:38.156Z,0.66
2023-02-15T04:43:38.135Z,0.66
2023-02-15T04:44:38.121Z,0.65
2023-02-15T04:45:38.168Z,0.62
2023-02-15T04:46:38.106Z,0.62
2023-02-15T04:47:38.347Z,0.61
2023-02-15T04:48:38.394Z,0.61
2023-02-15T04:49:38.053Z,0.61
2023-02-15T04:50:38.044Z,0.58
2023-02-15T04:51:38.024Z,0.61
2023-02-15T04:52:38.023Z,0.61
2023-02-15T04:53:38.173Z,0.61
2023-02-15T04:54:38.004Z,0.61
2023-02-15T04:55:37.982Z,0.61
2023-02-15T04:56:37.972Z,0.62
2023-02-15T04:57:37.962Z,0.61
2023-02-15T04:58:38.132Z,0.62
2023-02-15T04:59:37.927Z,0.61
2023-02-15T05:00:37.939Z,0.60
2023-02-15T05:01:37.904Z,0.60
2023-02-15T05:02:37.902Z,0.57
2023-02-15T05:03:37.872Z,0.57
2023-02-15T05:04:38.134Z,0.57
2023-02-15T05:05:37.892Z,0.57
2023-02-15T05:06:37.846Z,0.55
2023-02-15T05:07:37.830Z,0.55
2023-02-15T05:08:37.838Z,0.53
2023-02-15T05:09:38.088Z,0.51
2023-02-15T05:10:37.796Z,0.51
2023-02-15T05:11:37.779Z,0.51
2023-02-15T05:12:37.768Z,0.49
2023-02-15T05:13:37.759Z,0.47
2023-02-15T05:14:37.751Z,0.50
2023-02-15T05:15:37.909Z,0.50
2023-02-15T05:16:37.790Z,0.50
2023-02-15T05:17:37.707Z,0.50
2023-02-15T05:18:37.698Z,0.50
2023-02-15T05:19:37.674Z,0.47
2023-02-15T05:20:37.837Z,0.47
2023-02-15T05:21:37.680Z,0.47
2023-02-15T05:22:37.647Z,0.46
2023-02-15T05:23:37.637Z,0.46
2023-02-15T05:24:37.618Z,0.46
2023-02-15T05:25:37.597Z,0.44
2023-02-15T05:26:37.741Z,0.44
2023-02-15T05:27:37.582Z,0.44
2023-02-15T05:28:37.581Z,0.42
2023-02-15T05:29:37.557Z,0.41
2023-02-15T05:30:37.748Z,0.41
2023-02-15T05:31:37.745Z,0.39
2023-02-15T05:32:37.803Z,0.38
2023-02-15T05:33:37.702Z,0.41
2023-02-15T05:34:37.497Z,0.39
2023-02-15T05:35:37.479Z,0.39
2023-02-15T05:36:37.473Z,0.41
2023-02-15T05:37:37.638Z,0.36
2023-02-15T05:38:37.459Z,0.38
2023-02-15T05:39:37.709Z,0.38
2023-02-15T05:40:37.428Z,0.36
2023-02-15T05:41:37.408Z,0.36
2023-02-15T05:42:37.397Z,0.35
2023-02-15T05:43:37.574Z,0.36
2023-02-15T05:44:37.370Z,0.33
2023-02-15T05:45:37.553Z,0.35
2023-02-15T05:46:37.345Z,0.33
2023-02-15T05:47:37.419Z,0.33
2023-02-15T05:48:37.325Z,0.33
2023-02-15T05:49:37.308Z,0.33
2023-02-15T05:50:37.495Z,0.33
2023-02-15T05:51:37.287Z,0.32
2023-02-15T05:52:37.282Z,0.32
2023-02-15T05:53:37.439Z,0.32
2023-02-15T05:54:37.245Z,0.32
2023-02-15T05:55:37.237Z,0.32
2023-02-15T05:56:37.230Z,0.32
2023-02-15T05:57:37.215Z,0.32
2023-02-15T05:58:37.217Z,0.33
2023-02-15T05:59:37.190Z,0.33
2023-02-15T06:00:38.185Z,0.35
2023-02-15T06:01:37.177Z,0.33
2023-02-15T06:02:37.173Z,0.36
2023-02-15T06:03:37.180Z,0.35
2023-02-15T06:04:37.126Z,0.35
2023-02-15T06:05:37.103Z,0.33
2023-02-15T06:06:37.109Z,0.33
2023-02-15T06:07:37.087Z,0.33
2023-02-15T06:08:37.076Z,0.33
2023-02-15T06:09:37.055Z,0.33
2023-02-15T06:10:37.053Z,0.33
2023-02-15T06:11:37.058Z,0.33
2023-02-15T06:12:37.024Z,0.33
2023-02-15T06:13:38.816Z,0.36
2023-02-15T06:14:36.995Z,0.35
2023-02-15T06:15:37.148Z,0.36
2023-02-15T06:16:36.970Z,0.38
2023-02-15T06:17:36.962Z,0.39
2023-02-15T06:18:36.974Z,0.38
2023-02-15T06:19:36.938Z,0.41
2023-02-15T06:20:36.922Z,0.39
2023-02-15T06:21:36.915Z,0.39
2023-02-15T06:22:36.891Z,0.41
2023-02-15T06:23:36.905Z,0.39
2023-02-15T06:24:36.870Z,0.41
2023-02-15T06:25:38.585Z,0.41
2023-02-15T06:26:36.907Z,0.39
2023-02-15T06:27:36.840Z,0.42
2023-02-15T06:28:36.830Z,0.39
2023-02-15T06:29:36.811Z,0.39
2023-02-15T06:30:36.788Z,0.38
2023-02-15T06:31:36.895Z,0.38
2023-02-15T06:32:36.765Z,0.38
2023-02-15T06:33:36.930Z,0.38
2023-02-15T06:34:36.756Z,0.38
2023-02-15T06:35:36.743Z,0.38
2023-02-15T06:36:36.714Z,0.39
2023-02-15T06:37:36.706Z,0.42
2023-02-15T06:38:36.865Z,0.41
2023-02-15T06:39:36.694Z,0.42
2023-02-15T06:40:36.665Z,0.46
2023-02-15T06:41:36.656Z,0.46
2023-02-15T06:42:36.643Z,0.47
2023-02-15T06:43:36.646Z,0.50
2023-02-15T06:44:36.894Z,0.51
2023-02-15T06:45:36.614Z,0.51
2023-02-15T06:46:36.647Z,0.53
2023-02-15T06:47:36.582Z,0.55
2023-02-15T06:48:36.563Z,0.58
2023-02-15T06:49:36.561Z,0.60
2023-02-15T06:50:36.722Z,0.62
2023-02-15T06:51:36.705Z,0.65
2023-02-15T06:52:36.511Z,0.62
2023-02-15T06:53:36.512Z,0.66
2023-02-15T06:54:36.496Z,0.66
2023-02-15T06:55:36.492Z,0.66
2023-02-15T06:56:36.633Z,0.66
2023-02-15T06:57:36.487Z,0.65
2023-02-15T06:58:36.456Z,0.66
2023-02-15T06:59:36.430Z,0.68
2023-02-15T07:00:36.439Z,0.66
2023-02-15T07:01:36.453Z,0.66
2023-02-15T07:02:36.422Z,0.65
2023-02-15T07:03:36.384Z,0.66
2023-02-15T07:04:36.398Z,0.66
2023-02-15T07:05:36.357Z,0.68
2023-02-15T07:06:36.514Z,0.69
2023-02-15T07:07:36.348Z,0.68
2023-02-15T07:08:36.489Z,0.69
2023-02-15T07:09:36.302Z,0.69
2023-02-15T07:10:36.282Z,0.72
2023-02-15T07:11:36.272Z,0.69
2023-02-15T07:12:36.262Z,0.72
2023-02-15T07:13:36.261Z,0.73
2023-02-15T07:14:36.241Z,0.73
2023-02-15T07:15:36.220Z,0.73
2023-02-15T07:16:36.220Z,0.76
2023-02-15T07:17:36.662Z,0.78
2023-02-15T07:18:36.198Z,0.76
2023-02-15T07:19:36.172Z,0.76
2023-02-15T07:20:37.482Z,0.76
2023-02-15T07:21:36.138Z,0.78
2023-02-15T07:22:36.136Z,0.79
2023-02-15T07:23:36.294Z,0.79
2023-02-15T07:24:36.118Z,0.83
2023-02-15T07:25:36.103Z,0.86
2023-02-15T07:26:36.084Z,0.88
2023-02-15T07:27:36.065Z,0.91
2023-02-15T07:28:36.076Z,0.93
2023-02-15T07:29:36.232Z,0.96
2023-02-15T07:30:36.085Z,1.00
2023-02-15T07:31:36.013Z,1.00
2023-02-15T07:32:36.072Z,1.05
2023-02-15T07:33:35.994Z,1.08
2023-02-15T07:34:36.164Z,1.11
2023-02-15T07:35:35.971Z,1.12
2023-02-15T07:36:35.964Z,1.14
2023-02-15T07:37:35.942Z,1.15
2023-02-15T07:38:35.952Z,1.15
2023-02-15T07:39:36.094Z,1.16
2023-02-15T07:40:35.912Z,1.22
2023-02-15T07:41:36.084Z,1.23
2023-02-15T07:42:35.883Z,1.24
2023-02-15T07:43:35.871Z,1.27
2023-02-15T07:44:35.850Z,1.29
2023-02-15T07:45:35.838Z,1.30
2023-02-15T07:46:36.056Z,1.33
2023-02-15T07:47:35.818Z,1.36
2023-02-15T07:48:35.830Z,1.37
2023-02-15T07:49:35.797Z,1.44
2023-02-15T07:50:35.796Z,1.45
2023-02-15T07:51:35.968Z,1.45
2023-02-15T07:52:35.761Z,1.48
2023-02-15T07:53:35.740Z,1.50
2023-02-15T07:54:35.771Z,1.52
2023-02-15T07:55:35.711Z,1.52
2023-02-15T07:56:37.121Z,1.55
2023-02-15T07:57:35.686Z,1.60
2023-02-15T07:58:35.684Z,1.63
2023-02-15T07:59:35.668Z,1.66
2023-02-15T08:00:35.656Z,1.70
2023-02-15T08:01:35.646Z,1.73
2023-02-15T08:02:35.715Z,1.79
2023-02-15T08:03:35.655Z,1.81
2023-02-15T08:04:35.606Z,1.83
2023-02-15T08:05:35.584Z,1.86
2023-02-15T08:06:35.640Z,1.88
2023-02-15T08:07:35.569Z,1.93
2023-02-15T08:08:35.554Z,2.00
2023-02-15T08:09:35.534Z,2.09
2023-02-15T08:10:35.536Z,2.16
2023-02-15T08:11:35.695Z,2.20
2023-02-15T08:12:35.505Z,2.28
2023-02-15T08:13:35.486Z,2.35
2023-02-15T08:14:35.489Z,2.41
2023-02-15T08:15:35.479Z,2.46
2023-02-15T08:16:35.491Z,2.52
2023-02-15T08:17:35.618Z,2.57
2023-02-15T08:18:35.438Z,2.61
2023-02-15T08:19:35.604Z,2.64
2023-02-15T08:20:35.408Z,2.69
2023-02-15T08:21:35.390Z,2.74
2023-02-15T08:22:35.386Z,2.79
2023-02-15T08:23:35.367Z,2.87
2023-02-15T08:24:35.367Z,2.95
2023-02-15T08:25:35.341Z,3.05
2023-02-15T08:26:35.333Z,3.13
2023-02-15T08:27:35.317Z,3.21
2023-02-15T08:28:35.489Z,3.29
2023-02-15T08:29:35.480Z,3.35
2023-02-15T08:30:36.426Z,3.45
2023-02-15T08:31:35.398Z,3.51
2023-02-15T08:32:35.258Z,3.58
2023-02-15T08:33:35.244Z,3.62
2023-02-15T08:34:35.424Z,3.69
2023-02-15T08:41:19.995Z,4.20
2023-02-15T08:42:20.043Z,4.27
2023-02-15T08:43:19.935Z,4.36
2023-02-15T08:44:19.951Z,4.42
2023-02-15T08:45:19.916Z,4.45
2023-02-15T08:46:19.924Z,4.51
2023-02-15T08:47:20.064Z,4.55
2023-02-15T08:48:20.069Z,4.60
2023-02-15T08:49:19.948Z,4.62
2023-02-15T08:50:19.852Z,4.66
2023-02-15T08:51:19.836Z,4.67
2023-02-15T08:52:19.836Z,4.75
2023-02-15T08:53:19.999Z,4.78
2023-02-15T08:54:19.831Z,4.86
2023-02-15T08:55:19.780Z,4.91
2023-02-15T08:56:19.781Z,4.97
2023-02-15T08:57:19.781Z,5.03
2023-02-15T08:58:19.930Z,5.06
2023-02-15T08:59:19.746Z,5.12
2023-02-15T09:00:19.729Z,5.20
2023-02-15T09:01:19.746Z,5.27
2023-02-15T09:02:19.738Z,5.35
2023-02-15T09:03:19.859Z,5.38
2023-02-15T09:04:19.868Z,5.42
2023-02-15T09:05:19.659Z,5.49
2023-02-15T09:06:19.647Z,5.56
2023-02-15T09:07:19.640Z,5.61
2023-02-15T09:08:19.640Z,5.67
2023-02-15T09:09:19.802Z,5.76
2023-02-15T09:10:19.616Z,5.85
2023-02-15T09:11:19.596Z,5.91
2023-02-15T09:12:19.602Z,5.99
2023-02-15T09:13:19.567Z,6.06
2023-02-15T09:14:19.574Z,6.15
2023-02-15T09:15:19.535Z,6.25
2023-02-15T09:16:19.564Z,6.36
2023-02-15T09:17:19.538Z,6.48
2023-02-15T09:18:19.495Z,6.59
2023-02-15T09:19:19.494Z,6.67
2023-02-15T09:20:19.656Z,6.79
2023-02-15T09:21:19.455Z,6.87
2023-02-15T09:22:19.452Z,6.99
2023-02-15T09:23:26.855Z,7.10
2023-02-15T09:24:20.425Z,7.24
2023-02-15T09:25:19.411Z,7.35
2023-02-15T09:26:19.427Z,7.49
2023-02-15T09:27:19.388Z,7.64
2023-02-15T09:28:19.370Z,7.79
2023-02-15T09:29:19.360Z,7.92
2023-02-15T09:30:19.427Z,8.04
2023-02-15T09:31:19.654Z,8.18
2023-02-15T09:32:19.366Z,8.29
2023-02-15T09:33:19.600Z,8.43
2023-02-15T09:34:19.299Z,8.61
2023-02-15T09:35:19.268Z,8.81
2023-02-15T09:36:19.277Z,8.98
2023-02-15T09:37:19.262Z,9.17
2023-02-15T09:38:19.425Z,9.32
2023-02-15T09:39:19.227Z,9.48
2023-02-15T09:40:19.216Z,9.61
2023-02-15T09:41:19.196Z,9.72
2023-02-15T09:42:19.185Z,9.83
2023-02-15T09:43:19.176Z,9.91
2023-02-15T09:44:19.174Z,10.07
2023-02-15T09:45:19.148Z,10.18
2023-02-15T09:46:19.200Z,10.30
2023-02-15T09:47:19.153Z,10.44
2023-02-15T09:48:19.128Z,10.55
2023-02-15T09:49:19.295Z,10.70
2023-02-15T09:50:19.104Z,10.88
2023-02-15T09:51:19.070Z,10.99
2023-02-15T09:52:19.063Z,11.09
2023-02-15T09:53:19.075Z,11.14
2023-02-15T09:54:19.054Z,11.19
2023-02-15T09:55:19.036Z,11.25
2023-02-15T09:56:20.755Z,11.39
2023-02-15T09:57:18.994Z,11.46
2023-02-15T09:58:19.009Z,11.55
2023-02-15T09:59:18.971Z,11.67
2023-02-15T10:00:19.140Z,11.76
2023-02-15T10:01:18.973Z,11.95
2023-02-15T10:02:18.937Z,12.13
2023-02-15T10:03:18.934Z,12.29
2023-02-15T10:04:18.997Z,12.41
2023-02-15T10:05:18.894Z,12.56
2023-02-15T10:06:18.884Z,12.77
2023-02-15T10:07:19.036Z,12.95
2023-02-15T10:08:18.856Z,13.11
2023-02-15T10:09:18.843Z,13.26
2023-02-15T10:10:18.845Z,13.42
2023-02-15T10:11:18.985Z,13.52
2023-02-15T10:12:18.812Z,13.60
2023-02-15T10:13:18.781Z,13.48
2023-02-15T10:14:19.606Z,13.46
2023-02-15T10:15:18.764Z,13.49
2023-02-15T10:16:19.016Z,13.36
2023-02-15T10:17:18.756Z,13.15
2023-02-15T10:18:18.725Z,13.05
2023-02-15T10:19:18.718Z,13.05
2023-02-15T10:20:18.713Z,13.08
2023-02-15T10:21:18.702Z,13.20
2023-02-15T10:22:18.674Z,13.42
2023-02-15T10:23:18.657Z,13.64
2023-02-15T10:24:18.654Z,13.77
2023-02-15T10:25:18.644Z,13.89
2023-02-15T10:26:18.802Z,14.00
2023-02-15T10:27:18.860Z,14.20
2023-02-15T10:28:18.592Z,14.35
2023-02-15T10:29:18.582Z,14.52
2023-02-15T10:30:18.638Z,14.64
2023-02-15T10:31:18.622Z,14.62
2023-02-15T10:32:18.606Z,14.69
2023-02-15T10:33:18.542Z,14.84
2023-02-15T10:34:18.516Z,14.98
2023-02-15T10:35:18.498Z,15.20
2023-02-15T10:36:18.489Z,15.32
2023-02-15T10:37:18.502Z,15.36
2023-02-15T10:38:18.470Z,15.38
2023-02-15T10:39:18.450Z,15.27
2023-02-15T10:40:18.438Z,15.16
2023-02-15T10:41:18.429Z,15.27
2023-02-15T10:42:18.428Z,15.20
2023-02-15T10:43:18.390Z,15.01
2023-02-15T10:44:18.571Z,14.80
2023-02-15T10:45:18.368Z,14.65
2023-02-15T10:46:18.413Z,14.58
2023-02-15T10:47:18.348Z,14.61
2023-02-15T10:48:18.508Z,14.70
2023-02-15T10:49:18.307Z,14.86
2023-02-15T10:50:18.348Z,14.95
2023-02-15T10:51:18.287Z,15.03
2023-02-15T10:52:18.297Z,15.03
2023-02-15T10:53:18.266Z,14.83
2023-02-15T10:54:18.256Z,14.64
2023-02-15T10:55:18.430Z,14.45
2023-02-15T10:56:18.226Z,14.42
2023-02-15T10:57:18.220Z,14.33
2023-02-15T10:58:18.206Z,14.29
2023-02-15T10:59:18.187Z,14.17
2023-02-15T11:00:18.197Z,14.10
2023-02-15T11:01:18.193Z,14.07
2023-02-15T11:02:18.154Z,14.17
2023-02-15T11:03:18.135Z,14.27
2023-02-15T11:04:18.143Z,14.27
2023-02-15T11:05:18.714Z,14.25
2023-02-15T11:06:18.217Z,14.21
2023-02-15T11:07:18.165Z,14.25
2023-02-15T11:08:18.143Z,14.36
2023-02-15T11:09:18.115Z,14.47
2023-02-15T11:10:18.518Z,14.62
2023-02-15T11:11:18.065Z,14.62
2023-02-15T11:12:18.195Z,14.73
2023-02-15T11:13:18.005Z,14.81
2023-02-15T11:14:18.002Z,14.88
2023-02-15T11:15:17.991Z,15.07
2023-02-15T11:16:18.997Z,15.35
2023-02-15T11:17:17.980Z,15.50
2023-02-15T11:18:17.947Z,15.57
2023-02-15T11:19:17.935Z,15.69
2023-02-15T11:20:17.923Z,15.71
2023-02-15T11:21:17.904Z,15.76
2023-02-15T11:22:18.234Z,15.97
2023-02-15T11:23:18.054Z,16.09
2023-02-15T11:24:17.881Z,16.07
2023-02-15T11:25:17.873Z,15.93
2023-02-15T11:26:17.851Z,15.80
2023-02-15T11:27:17.879Z,15.83
2023-02-15T11:28:17.836Z,15.93
2023-02-15T11:29:17.803Z,16.07
2023-02-15T11:30:18.042Z,16.39
2023-02-15T11:31:17.918Z,16.67
2023-02-15T11:32:17.928Z,16.76
2023-02-15T11:33:17.766Z,16.73
2023-02-15T11:34:17.752Z,16.68
2023-02-15T11:35:17.912Z,16.66
2023-02-15T11:36:17.722Z,16.57
2023-02-15T11:37:17.703Z,16.63
2023-02-15T11:38:17.702Z,16.63
2023-02-15T11:39:17.684Z,16.60
2023-02-15T11:40:17.884Z,16.60
2023-02-15T11:41:17.660Z,16.71
2023-02-15T11:42:17.649Z,16.83
2023-02-15T11:43:17.629Z,17.01
2023-02-15T11:44:17.608Z,17.18
2023-02-15T11:45:17.628Z,17.34
2023-02-15T11:46:17.643Z,17.28
2023-02-15T11:47:17.587Z,17.23
2023-02-15T11:48:17.565Z,17.28
2023-02-15T11:49:17.557Z,17.34
2023-02-15T11:50:17.634Z,17.48
2023-02-15T11:51:17.667Z,17.56
2023-02-15T11:52:17.529Z,17.58
2023-02-15T11:53:17.497Z,17.74
2023-02-15T11:54:17.476Z,17.82
2023-02-15T11:55:17.484Z,17.77
2023-02-15T11:56:17.479Z,17.70
2023-02-15T11:57:17.457Z,17.75
2023-02-15T11:58:17.434Z,17.79
2023-02-15T11:59:17.424Z,17.90
2023-02-15T12:00:17.444Z,18.07
2023-02-15T12:01:17.394Z,18.21
2023-02-15T12:02:17.560Z,18.26
2023-02-15T12:03:17.545Z,18.25
2023-02-15T12:04:17.390Z,18.21
2023-02-15T12:05:17.338Z,18.20
2023-02-15T12:06:17.318Z,18.08
2023-02-15T12:07:17.307Z,17.99
2023-02-15T12:08:17.304Z,18.02
2023-02-15T12:09:17.299Z,18.07
2023-02-15T12:10:17.409Z,18.15
2023-02-15T12:11:17.264Z,18.11
2023-02-15T12:12:17.250Z,18.02
2023-02-15T12:13:17.224Z,17.84
2023-02-15T12:14:17.417Z,17.71
2023-02-15T12:15:17.205Z,17.70
2023-02-15T12:16:17.272Z,17.63
2023-02-15T12:17:17.176Z,17.52
2023-02-15T12:18:17.478Z,17.38
2023-02-15T12:19:17.153Z,17.21
2023-02-15T12:20:17.257Z,17.04
2023-02-15T12:21:17.308Z,16.82
2023-02-15T12:22:17.104Z,16.71
2023-02-15T12:23:17.287Z,16.53
2023-02-15T12:24:17.075Z,16.48
2023-02-15T12:25:17.084Z,16.45
2023-02-15T12:26:17.062Z,16.42
2023-02-15T12:27:17.049Z,16.43
2023-02-15T12:28:17.202Z,16.34
2023-02-15T12:29:17.013Z,16.14
2023-02-15T12:30:17.064Z,15.94
2023-02-15T12:31:17.117Z,15.83
2023-02-15T12:32:16.971Z,15.68
2023-02-15T12:33:17.171Z,15.59
2023-02-15T12:34:17.157Z,15.57
2023-02-15T12:35:16.933Z,15.56
2023-02-15T12:36:16.914Z,15.57
2023-02-15T12:37:16.915Z,15.57
2023-02-15T12:38:16.902Z,15.59
2023-02-15T12:39:17.078Z,15.53
2023-02-15T12:40:16.866Z,15.47
2023-02-15T12:41:16.869Z,15.43
2023-02-15T12:42:16.834Z,15.39
2023-02-15T12:43:16.822Z,15.35
2023-02-15T12:44:17.009Z,15.27
2023-02-15T12:45:19.227Z,15.25
2023-02-15T12:46:16.820Z,15.25
2023-02-15T12:47:16.800Z,15.23
2023-02-15T12:48:16.781Z,15.25
2023-02-15T12:49:20.448Z,15.25
2023-02-15T12:50:16.951Z,15.21
2023-02-15T12:51:16.724Z,15.21
2023-02-15T12:52:16.726Z,15.17
2023-02-15T12:53:16.694Z,15.13
2023-02-15T12:54:16.800Z,15.03
2023-02-15T12:55:16.851Z,14.98
2023-02-15T12:56:16.662Z,14.95
2023-02-15T12:57:16.659Z,14.94
2023-02-15T12:58:16.645Z,14.91
2023-02-15T12:59:23.106Z,14.86
2023-02-15T13:00:17.832Z,14.81
2023-02-15T13:01:16.717Z,14.80
2023-02-15T13:02:16.669Z,14.77
2023-02-15T13:03:16.572Z,14.78
2023-02-15T13:04:16.570Z,14.75
2023-02-15T13:05:16.546Z,14.73
2023-02-15T13:06:16.562Z,14.73
2023-02-15T13:07:16.702Z,14.73
2023-02-15T13:08:16.526Z,14.70
2023-02-15T13:09:16.662Z,14.72
2023-02-15T13:10:16.494Z,14.70
2023-02-15T13:11:16.473Z,14.69
2023-02-15T13:12:16.487Z,14.65
2023-02-15T13:13:16.445Z,14.62
2023-02-15T13:14:16.443Z,14.62
2023-02-15T13:15:16.446Z,14.60
2023-02-15T13:16:16.513Z,14.58
2023-02-15T13:17:16.614Z,14.54